CheckWX is a tool to help pilots better visualize weather data.  It is not intended as a substitute for an official pre-flight weather briefing.

01:03:32 UTC

LFPN METAR
Toussus-le-Noble Airport
Toussus-le-Noble, France
Current

34 mins ago

LFPN 210030Z AUTO 01007KT CAVOK 14/06 Q1022
Observed
Apr-21 @ 00:30 UTC
Wind
  • 010° at 7 KTS
Visibility
10,000+ meters
Flight Rules
VFR
Cloud Levels
  • Clear skies
Temperature
14°C / 57°F
Dewpoint
C / 43°F
Humidity
59%
Altimeter
30.18" Hg
Pressure
1021.92 hPa
Previous

1 hour ago

LFPN 210000Z AUTO 01006KT CAVOK 13/06 Q1022
Observed
Apr-21 @ 00:00 UTC
Wind
  • 010° at 6 KTS
Visibility
10,000+ meters
Flight Rules
VFR
Cloud Levels
  • Clear skies
Temperature
13°C / 55°F
Dewpoint
C / 43°F
Humidity
63%
Altimeter
30.18" Hg
Pressure
1021.92 hPa
Previous

2 hours ago

LFPN 202330Z AUTO 35007KT CAVOK 14/05 Q1022
Observed
Apr-20 @ 23:30 UTC
Wind
  • 350° at 7 KTS
Visibility
10,000+ meters
Flight Rules
VFR
Cloud Levels
  • Clear skies
Temperature
14°C / 57°F
Dewpoint
C / 41°F
Humidity
55%
Altimeter
30.18" Hg
Pressure
1021.92 hPa